Time;durP1;ratioP1;P1;durP2;ratioP2;P2;SDS_P1;SDS_P2;PMS_P1;PMS_P2;Temp;Humidity;BMP_temperature;BMP_pressure;BME280_temperature;BME280_humidity;BME280_pressure;Samples;Min_cycle;Max_cycle;Signal;HPM_P1;HPM_P2
2021/12/23 00:01:18;;;;;;;;;;;;;;;-2.83;59.01;100932.88;4410929;32;23072;-82
2021/12/23 00:03:43;;;;;;;;;;;;;;;-2.88;59.00;100924.16;4410273;32;20027;-80
2021/12/23 00:06:08;;;;;;;;;;;;;;;-2.75;59.01;100930.62;4437099;32;20015;-81
2021/12/23 00:08:33;;;;;;;;;;;;;;;-3.02;58.99;100917.66;4423267;32;20030;-80
2021/12/23 00:10:59;;;;;;;;;;;;;;;-3.12;58.99;100918.06;4423475;32;20011;-81
2021/12/23 00:13:24;;;;;;;;;;;;;;;-3.18;58.99;100916.13;4423556;32;19994;-81
2021/12/23 00:16:18;;;;;;;;;;;;;;;-3.29;58.97;100919.06;4410565;32;20005;-80
2021/12/23 00:23:44;;;;;;;;;;;;;;;-3.23;58.98;100902.34;4426065;32;20000;-82
2021/12/23 00:26:09;;;;;;;;;;;;;;;-3.20;58.98;100902.47;4411102;32;19974;-82
2021/12/23 00:28:35;;;;;;;;;;;;;;;-3.26;58.98;100904.78;4410885;32;20627;-82
2021/12/23 00:31:00;;;;;;;;;;;;;;;-3.28;58.97;100905.53;4423239;32;22640;-81
2021/12/23 00:33:26;;;;;;;;;;;;;;;-3.26;58.98;100902.22;4436205;32;20118;-82
2021/12/23 00:35:53;;;;;;;;;;;;;;;-3.19;58.99;100900.81;4423760;32;19973;-83
2021/12/23 00:38:28;;;;;;;;;;;;;;;-3.23;58.98;100906.56;4424039;32;20409;-82
2021/12/23 00:40:54;;;;;;;;;;;;;;;-3.37;58.97;100890.72;4412013;32;19989;-82
2021/12/23 00:43:19;;;;;;;;;;;;;;;-3.32;58.98;100896.84;4437764;32;20329;-82
2021/12/23 00:45:45;;;;;;;;;;;;;;;-3.31;58.98;100895.19;4423625;32;20360;-82
2021/12/23 00:48:10;;;;;;;;;;;;;;;-3.29;58.97;100889.38;4410515;32;20516;-82
2021/12/23 00:50:35;;;;;;;;;;;;;;;-3.19;58.99;100886.38;4423562;32;20293;-81
2021/12/23 00:53:05;;;;;;;;;;;;;;;-3.26;58.99;100886.09;4423762;32;20001;-82
2021/12/23 00:55:30;;;;;;;;;;;;;;;-3.24;58.98;100881.91;4424152;32;19970;-82
2021/12/23 00:57:56;;;;;;;;;;;;;;;-3.21;58.98;100884.59;4410383;32;20009;-82
2021/12/23 01:00:21;;;;;;;;;;;;;;;-3.23;58.98;100886.22;4410545;32;20040;-82
2021/12/23 01:02:47;;;;;;;;;;;;;;;-3.40;58.97;100888.91;4410599;32;20118;-82
2021/12/23 01:05:13;;;;;;;;;;;;;;;-3.46;58.97;100890.34;4423379;32;19996;-82
2021/12/23 01:07:38;;;;;;;;;;;;;;;-3.46;58.97;100887.78;4410477;32;20057;-81
2021/12/23 01:10:04;;;;;;;;;;;;;;;-3.54;58.96;100879.84;4410074;32;20330;-82
2021/12/23 01:12:36;;;;;;;;;;;;;;;-3.44;58.97;100876.88;4410559;32;20024;-81
2021/12/23 01:15:15;;;;;;;;;;;;;;;-3.56;58.96;100880.56;4412701;32;19994;-82
2021/12/23 01:17:57;;;;;;;;;;;;;;;-3.45;58.97;100877.66;4426710;32;19985;-81
2021/12/23 01:20:27;;;;;;;;;;;;;;;-3.60;58.96;100868.50;4414230;32;20012;-82
2021/12/23 01:22:53;;;;;;;;;;;;;;;-3.66;58.95;100869.12;4412649;32;20048;-82
2021/12/23 01:25:19;;;;;;;;;;;;;;;-3.62;58.96;100863.34;4412476;32;20042;-81
2021/12/23 01:27:44;;;;;;;;;;;;;;;-3.67;58.95;100869.94;4412339;32;20309;-81
2021/12/23 01:30:09;;;;;;;;;;;;;;;-3.60;58.96;100863.41;4411895;32;22208;-82
2021/12/23 01:32:35;;;;;;;;;;;;;;;-3.68;58.95;100872.41;4412389;32;20001;-82
2021/12/23 01:35:00;;;;;;;;;;;;;;;-3.68;58.95;100869.88;4425003;32;20019;-81
2021/12/23 01:37:25;;;;;;;;;;;;;;;-3.72;58.95;100864.66;4412313;32;20295;-81
2021/12/23 01:39:50;;;;;;;;;;;;;;;-3.98;58.94;100866.88;4437332;32;26834;-81
2021/12/23 01:42:15;;;;;;;;;;;;;;;-3.92;58.93;100865.44;4412234;32;20255;-81
2021/12/23 01:44:41;;;;;;;;;;;;;;;-3.79;58.94;100860.06;4437940;32;20023;-81
2021/12/23 01:47:06;;;;;;;;;;;;;;;-3.87;58.94;100855.47;4437594;32;25839;-82
2021/12/23 01:49:31;;;;;;;;;;;;;;;-3.78;58.95;100845.72;4425117;32;20090;-82
2021/12/23 01:51:57;;;;;;;;;;;;;;;-3.87;58.94;100853.81;4425159;32;20042;-81
2021/12/23 01:54:22;;;;;;;;;;;;;;;-3.88;58.94;100854.59;4411996;32;20243;-81
2021/12/23 01:56:47;;;;;;;;;;;;;;;-3.83;58.95;100849.72;4412134;32;19984;-81
2021/12/23 01:59:12;;;;;;;;;;;;;;;-3.87;58.94;100842.75;4424803;32;20002;-81
2021/12/23 02:01:41;;;;;;;;;;;;;;;-3.84;58.95;100838.66;4437629;32;20000;-82
2021/12/23 02:04:06;;;;;;;;;;;;;;;-3.92;58.93;100837.47;4425074;32;19993;-81
2021/12/23 02:06:31;;;;;;;;;;;;;;;-3.77;58.95;100837.28;4438848;32;19988;-81
2021/12/23 02:08:57;;;;;;;;;;;;;;;-3.89;58.95;100829.97;4438375;32;20037;-81
2021/12/23 02:11:22;;;;;;;;;;;;;;;-3.83;58.95;100829.38;4411697;32;20023;-81
2021/12/23 02:13:47;;;;;;;;;;;;;;;-3.75;58.95;100830.59;4438764;32;19996;-80
2021/12/23 02:16:12;;;;;;;;;;;;;;;-3.73;58.95;100834.06;4424141;32;20030;-81
2021/12/23 02:18:38;;;;;;;;;;;;;;;-3.79;58.94;100831.22;4411518;32;20023;-81
2021/12/23 02:21:03;;;;;;;;;;;;;;;-3.75;58.95;100821.28;4424457;32;19989;-81
2021/12/23 02:23:29;;;;;;;;;;;;;;;-3.72;58.95;100820.53;4411601;32;19993;-81
2021/12/23 02:25:54;;;;;;;;;;;;;;;-3.75;58.95;100812.78;4437191;32;20012;-81
2021/12/23 02:28:19;;;;;;;;;;;;;;;-3.71;58.95;100818.03;4437847;32;23185;-81
2021/12/23 02:30:46;;;;;;;;;;;;;;;-3.67;58.95;100819.03;4424447;32;20288;-82
2021/12/23 02:33:11;;;;;;;;;;;;;;;-3.68;58.95;100809.66;4424373;32;20004;-81
2021/12/23 02:35:36;;;;;;;;;;;;;;;-3.59;58.96;100807.50;4424362;32;20001;-81
2021/12/23 02:38:02;;;;;;;;;;;;;;;-3.74;58.95;100805.19;4424378;32;20009;-81
2021/12/23 02:40:27;;;;;;;;;;;;;;;-3.68;58.95;100791.88;4411590;32;20046;-81
2021/12/23 02:42:53;;;;;;;;;;;;;;;-3.69;58.96;100799.44;4438474;32;20274;-80
2021/12/23 02:45:18;;;;;;;;;;;;;;;-3.65;58.95;100791.97;4424376;32;20017;-80
2021/12/23 02:47:43;;;;;;;;;;;;;;;-3.76;58.96;100793.22;4424440;32;20339;-82
2021/12/23 02:50:08;;;;;;;;;;;;;;;-3.57;58.96;100790.63;4424291;32;20007;-81
2021/12/23 02:52:34;;;;;;;;;;;;;;;-3.57;58.96;100785.53;4423878;32;20010;-81
2021/12/23 02:54:59;;;;;;;;;;;;;;;-3.51;58.96;100779.84;4411319;32;20290;-81
2021/12/23 02:57:24;;;;;;;;;;;;;;;-3.51;58.96;100785.81;4424187;32;20001;-81
2021/12/23 02:59:50;;;;;;;;;;;;;;;-3.46;58.97;100779.22;4424319;32;19993;-81
2021/12/23 03:02:15;;;;;;;;;;;;;;;-3.46;58.97;100776.66;4411274;32;20029;-81
2021/12/23 03:04:40;;;;;;;;;;;;;;;-3.40;58.97;100773.50;4438196;32;19981;-81
2021/12/23 03:07:06;;;;;;;;;;;;;;;-3.37;58.98;100775.28;4423863;32;20259;-80
2021/12/23 03:09:31;;;;;;;;;;;;;;;-3.33;58.98;100774.59;4437566;32;22242;-81
2021/12/23 03:11:56;;;;;;;;;;;;;;;-3.28;58.97;100773.13;4437669;32;19981;-81
2021/12/23 03:14:21;;;;;;;;;;;;;;;-3.26;58.98;100764.75;4423591;32;22564;-81
2021/12/23 03:16:47;;;;;;;;;;;;;;;-3.28;58.98;100766.37;4438314;32;19990;-81
2021/12/23 03:19:12;;;;;;;;;;;;;;;-3.18;58.99;100759.94;4423947;32;20008;-81
2021/12/23 03:21:37;;;;;;;;;;;;;;;-3.16;58.98;100763.41;4436556;32;20026;-81
2021/12/23 03:24:04;;;;;;;;;;;;;;;-3.21;58.98;100762.37;4438104;32;19981;-82
2021/12/23 03:26:29;;;;;;;;;;;;;;;-3.14;58.98;100760.13;4424351;32;20009;-81
2021/12/23 03:28:54;;;;;;;;;;;;;;;-3.10;58.99;100758.56;4424586;32;20008;-82
2021/12/23 03:31:19;;;;;;;;;;;;;;;-3.09;58.99;100753.53;4423995;32;20315;-81
2021/12/23 03:33:45;;;;;;;;;;;;;;;-3.05;58.99;100754.53;4437000;32;20274;-82
2021/12/23 03:36:10;;;;;;;;;;;;;;;-3.02;58.99;100757.19;4437378;32;20031;-83
2021/12/23 03:38:35;;;;;;;;;;;;;;;-3.12;58.99;100748.31;4438339;32;20001;-82
2021/12/23 03:41:00;;;;;;;;;;;;;;;-3.12;58.99;100750.00;4424711;32;20005;-82
2021/12/23 03:43:26;;;;;;;;;;;;;;;-2.99;58.99;100742.03;4412063;32;19981;-82
2021/12/23 03:45:52;;;;;;;;;;;;;;;-3.08;58.99;100751.84;4424755;32;20044;-82
2021/12/23 03:48:17;;;;;;;;;;;;;;;-2.95;59.00;100745.56;4411296;32;24507;-82
2021/12/23 03:50:42;;;;;;;;;;;;;;;-3.00;58.99;100744.50;4411510;32;20325;-82
2021/12/23 03:53:07;;;;;;;;;;;;;;;-2.99;58.99;100739.47;4411417;32;19992;-82
2021/12/23 03:55:33;;;;;;;;;;;;;;;-2.98;58.99;100742.88;4411165;32;22576;-82
2021/12/23 03:57:58;;;;;;;;;;;;;;;-2.95;59.00;100737.91;4411251;32;20000;-80
2021/12/23 04:00:23;;;;;;;;;;;;;;;-2.96;59.00;100741.28;4424006;32;20159;-82
2021/12/23 04:02:48;;;;;;;;;;;;;;;-2.90;59.00;100739.81;4423669;32;20322;-81
2021/12/23 04:05:14;;;;;;;;;;;;;;;-2.95;59.00;100735.37;4436837;32;20255;-82
2021/12/23 04:07:39;;;;;;;;;;;;;;;-2.99;59.00;100733.50;4424142;32;20035;-81
2021/12/23 04:10:05;;;;;;;;;;;;;;;-2.88;59.00;100728.00;4423422;32;22820;-82
2021/12/23 04:12:30;;;;;;;;;;;;;;;-2.85;59.00;100725.56;4423913;32;20001;-81
2021/12/23 04:14:55;;;;;;;;;;;;;;;-2.86;59.00;100728.91;4437814;32;19988;-82
2021/12/23 04:17:21;;;;;;;;;;;;;;;-2.83;59.01;100723.97;4410625;32;20009;-81
2021/12/23 04:19:47;;;;;;;;;;;;;;;-2.79;59.00;100720.72;4437625;32;20009;-81
2021/12/23 04:22:12;;;;;;;;;;;;;;;-2.74;59.01;100718.34;4423486;32;20043;-81
2021/12/23 04:24:38;;;;;;;;;;;;;;;-2.68;59.02;100722.78;4423345;32;20012;-81
2021/12/23 04:27:03;;;;;;;;;;;;;;;-2.77;59.00;100733.50;4437560;32;19998;-81
2021/12/23 04:29:28;;;;;;;;;;;;;;;-2.64;59.02;100720.38;4437693;32;19978;-81
2021/12/23 04:31:53;;;;;;;;;;;;;;;-2.49;59.02;100715.84;4410611;32;20045;-81
2021/12/23 04:34:19;;;;;;;;;;;;;;;-2.53;59.02;100708.91;4410782;32;19989;-81
2021/12/23 04:36:44;;;;;;;;;;;;;;;-2.46;59.03;100702.34;4411016;32;20056;-82
2021/12/23 04:39:09;;;;;;;;;;;;;;;-2.52;59.02;100705.56;4423506;32;19993;-82
2021/12/23 04:41:34;;;;;;;;;;;;;;;-2.41;59.02;100708.47;4410632;32;20022;-80
2021/12/23 04:44:00;;;;;;;;;;;;;;;-2.52;59.03;100710.66;4424339;32;20002;-81
2021/12/23 04:46:25;;;;;;;;;;;;;;;-2.52;59.03;100707.25;4410789;32;20360;-81
2021/12/23 04:48:50;;;;;;;;;;;;;;;-2.59;59.02;100706.16;4423585;32;19973;-81
2021/12/23 04:51:16;;;;;;;;;;;;;;;-2.56;59.02;100703.72;4425072;32;19993;-81
2021/12/23 04:53:41;;;;;;;;;;;;;;;-2.66;59.01;100706.72;4425173;32;19985;-81
2021/12/23 04:56:06;;;;;;;;;;;;;;;-2.70;59.01;100709.97;4412431;32;20068;-81
2021/12/23 04:58:31;;;;;;;;;;;;;;;-2.72;59.01;100703.09;4411869;32;20009;-80
2021/12/23 05:00:57;;;;;;;;;;;;;;;-2.66;59.02;100703.31;4439105;32;20035;-81
2021/12/23 05:03:23;;;;;;;;;;;;;;;-2.65;59.01;100710.16;4437793;32;20338;-81
2021/12/23 05:05:48;;;;;;;;;;;;;;;-2.61;59.03;100702.66;4425020;32;19986;-80
2021/12/23 05:08:13;;;;;;;;;;;;;;;-2.56;59.02;100708.81;4438908;32;19993;-80
2021/12/23 05:10:38;;;;;;;;;;;;;;;-2.75;59.01;100703.00;4438933;32;19982;-80
2021/12/23 05:13:04;;;;;;;;;;;;;;;-2.51;59.02;100701.31;4424687;32;20002;-81
2021/12/23 05:15:29;;;;;;;;;;;;;;;-2.53;59.02;100693.63;4411963;32;20005;-80
2021/12/23 05:17:54;;;;;;;;;;;;;;;-2.36;59.03;100689.13;4438565;32;19988;-81
2021/12/23 05:20:19;;;;;;;;;;;;;;;-2.43;59.03;100683.75;4438906;32;20003;-81
2021/12/23 05:22:45;;;;;;;;;;;;;;;-2.44;59.03;100685.41;4424696;32;20319;-80
2021/12/23 05:25:10;;;;;;;;;;;;;;;-2.36;59.04;100681.47;4412046;32;20402;-82
2021/12/23 05:27:35;;;;;;;;;;;;;;;-2.45;59.03;100670.94;4411982;32;20019;-81
2021/12/23 05:30:04;;;;;;;;;;;;;;;-2.41;59.03;100675.31;4412000;32;19996;-81
2021/12/23 05:32:29;;;;;;;;;;;;;;;-2.42;59.03;100682.94;4437406;32;19990;-81
2021/12/23 05:34:54;;;;;;;;;;;;;;;-2.42;59.03;100688.88;4424641;32;20008;-81
2021/12/23 05:37:19;;;;;;;;;;;;;;;-2.28;59.04;100694.47;4424285;32;20030;-81
2021/12/23 05:39:45;;;;;;;;;;;;;;;-2.32;59.04;100698.63;4438314;32;20034;-81
2021/12/23 05:42:10;;;;;;;;;;;;;;;-2.31;59.04;100704.59;4438630;32;19969;-81
2021/12/23 05:44:35;;;;;;;;;;;;;;;-2.34;59.03;100700.25;4411921;32;20007;-81
2021/12/23 05:47:00;;;;;;;;;;;;;;;-2.27;59.03;100708.97;4424284;32;20004;-81
2021/12/23 05:49:25;;;;;;;;;;;;;;;-2.12;59.04;100699.31;4424293;32;20038;-80
2021/12/23 05:51:51;;;;;;;;;;;;;;;-2.07;59.05;100700.31;4438082;32;20059;-81
2021/12/23 05:54:16;;;;;;;;;;;;;;;-2.11;59.04;100693.38;4411703;32;20001;-82
2021/12/23 05:56:41;;;;;;;;;;;;;;;-2.03;59.05;100691.94;4424474;32;20355;-81
2021/12/23 05:59:06;;;;;;;;;;;;;;;-2.08;59.05;100690.94;4424151;32;22500;-81
2021/12/23 06:01:32;;;;;;;;;;;;;;;-1.87;59.06;100688.22;4437742;32;21894;-82
2021/12/23 06:03:57;;;;;;;;;;;;;;;-1.87;59.06;100680.59;4424520;32;19986;-82
2021/12/23 06:06:22;;;;;;;;;;;;;;;-1.67;59.08;100673.53;4438206;32;19996;-81
2021/12/23 06:08:47;;;;;;;;;;;;;;;-1.63;59.07;100677.94;4423643;32;20334;-80
2021/12/23 06:11:13;;;;;;;;;;;;;;;-1.73;59.07;100669.12;4411169;32;24055;-81
2021/12/23 06:13:38;;;;;;;;;;;;;;;-1.66;59.07;100675.28;4411594;32;20723;-81
2021/12/23 06:16:03;;;;;;;;;;;;;;;-1.61;59.07;100673.75;4424036;32;19988;-81
2021/12/23 06:18:28;;;;;;;;;;;;;;;-1.50;59.08;100671.53;4438411;32;20003;-81
2021/12/23 06:20:54;;;;;;;;;;;;;;;-1.45;59.08;100673.41;4424455;32;19977;-82
2021/12/23 06:23:19;;;;;;;;;;;;;;;-1.56;59.08;100675.62;4438574;32;20270;-81
2021/12/23 06:25:44;;;;;;;;;;;;;;;-1.49;59.08;100670.72;4424219;32;20009;-81
2021/12/23 06:28:09;;;;;;;;;;;;;;;-1.40;59.09;100674.44;4436850;32;19973;-82
2021/12/23 06:30:35;;;;;;;;;;;;;;;-1.26;59.09;100668.03;4424403;32;19986;-82
2021/12/23 06:33:00;;;;;;;;;;;;;;;-1.18;59.09;100664.84;4438345;32;19993;-82
2021/12/23 06:35:26;;;;;;;;;;;;;;;-1.42;59.09;100663.31;4437038;32;19977;-82
2021/12/23 06:37:52;;;;;;;;;;;;;;;-1.38;59.08;100669.38;4411679;32;19981;-81
2021/12/23 06:40:17;;;;;;;;;;;;;;;-1.25;59.09;100662.09;4425249;32;20001;-86
2021/12/23 06:42:42;;;;;;;;;;;;;;;-1.29;59.10;100667.09;4411879;32;20048;-81
2021/12/23 06:45:08;;;;;;;;;;;;;;;-1.17;59.10;100667.47;4411467;32;20232;-82
2021/12/23 06:47:33;;;;;;;;;;;;;;;-1.13;59.11;100670.97;4424496;32;20009;-82
2021/12/23 06:49:59;;;;;;;;;;;;;;;-1.08;59.11;100667.72;4424190;32;20027;-82
2021/12/23 06:52:24;;;;;;;;;;;;;;;-1.05;59.10;100662.69;4411804;32;20024;-82
2021/12/23 06:54:53;;;;;;;;;;;;;;;-0.99;59.11;100659.44;4424244;32;20013;-81
2021/12/23 06:57:18;;;;;;;;;;;;;;;-0.97;59.11;100656.12;4424776;32;19970;-82
2021/12/23 06:59:44;;;;;;;;;;;;;;;-1.14;59.10;100665.00;4424217;32;19989;-81
2021/12/23 07:02:09;;;;;;;;;;;;;;;-1.08;59.11;100670.28;4436905;32;20024;-81
2021/12/23 07:04:36;;;;;;;;;;;;;;;-1.05;59.11;100667.81;4411467;32;20255;-82
2021/12/23 07:07:09;;;;;;;;;;;;;;;-0.80;59.13;100666.81;4411756;32;19985;-81
2021/12/23 07:09:38;;;;;;;;;;;;;;;-0.91;59.12;100664.81;4438377;32;20013;-81
2021/12/23 07:12:04;;;;;;;;;;;;;;;-0.84;59.12;100662.47;4423659;32;20016;-81
2021/12/23 07:14:29;;;;;;;;;;;;;;;-0.75;59.13;100659.28;4411519;32;19988;-82
2021/12/23 07:16:54;;;;;;;;;;;;;;;-0.60;59.14;100658.84;4411239;32;19996;-81
2021/12/23 07:19:19;;;;;;;;;;;;;;;-0.77;59.13;100660.94;4411184;32;20000;-82
2021/12/23 07:21:47;;;;;;;;;;;;;;;-0.66;59.13;100654.44;4437857;32;20004;-82
2021/12/23 07:24:13;;;;;;;;;;;;;;;-0.48;59.14;100649.81;4411393;32;20360;-81
2021/12/23 07:26:38;;;;;;;;;;;;;;;-0.52;59.14;100642.88;4423375;32;23999;-82
2021/12/23 07:29:03;;;;;;;;;;;;;;;-0.55;59.14;100650.47;4424021;32;20012;-81
2021/12/23 07:31:28;;;;;;;;;;;;;;;-0.35;59.15;100649.31;4424115;32;20040;-82
2021/12/23 07:33:54;;;;;;;;;;;;;;;-0.41;59.15;100645.75;4411655;32;20232;-81
2021/12/23 07:36:19;;;;;;;;;;;;;;;-0.28;59.16;100645.22;4424308;32;20013;-82
2021/12/23 07:38:44;;;;;;;;;;;;;;;-0.44;59.14;100650.78;4424202;32;19990;-82
2021/12/23 07:41:10;;;;;;;;;;;;;;;-0.20;59.16;100648.00;4411280;32;19989;-81
2021/12/23 07:46:03;;;;;;;;;;;;;;;-0.19;59.16;100647.16;4438116;32;19996;-82
2021/12/23 07:48:29;;;;;;;;;;;;;;;-0.05;59.17;100638.13;4424227;32;20262;-82
2021/12/23 07:50:54;;;;;;;;;;;;;;;-0.11;59.16;100641.41;4424286;32;19996;-82
2021/12/23 07:53:19;;;;;;;;;;;;;;;-0.01;59.17;100638.25;4424424;32;20381;-82
2021/12/23 07:55:45;;;;;;;;;;;;;;;0.04;59.17;100627.28;4411324;32;19981;-82
2021/12/23 07:58:10;;;;;;;;;;;;;;;-0.14;59.17;100630.22;4424075;32;19981;-82
2021/12/23 08:00:35;;;;;;;;;;;;;;;0.00;59.16;100626.34;4410624;32;23152;-82
2021/12/23 08:03:00;;;;;;;;;;;;;;;0.12;59.17;100625.75;4423747;32;20248;-82
2021/12/23 08:05:26;;;;;;;;;;;;;;;0.12;59.18;100615.50;4410481;32;23206;-82
2021/12/23 08:07:53;;;;;;;;;;;;;;;0.17;59.18;100611.38;4438078;32;19977;-82
2021/12/23 08:10:19;;;;;;;;;;;;;;;0.35;59.19;100604.13;4411075;32;20023;-82
2021/12/23 08:12:44;;;;;;;;;;;;;;;0.38;59.20;100605.88;4423879;32;20323;-82
2021/12/23 08:15:09;;;;;;;;;;;;;;;0.50;59.20;100603.59;4423795;32;19997;-83
2021/12/23 08:17:34;;;;;;;;;;;;;;;0.58;59.20;100602.06;4423789;32;19993;-82
2021/12/23 08:20:00;;;;;;;;;;;;;;;0.59;59.21;100598.66;4423334;32;20001;-82
2021/12/23 08:22:25;;;;;;;;;;;;;;;0.78;59.22;100597.38;4411005;32;20001;-83
2021/12/23 08:24:50;;;;;;;;;;;;;;;0.66;59.22;100600.53;4410846;32;20024;-82
2021/12/23 08:27:15;;;;;;;;;;;;;;;0.69;59.21;100600.59;4423359;32;20122;-82
2021/12/23 08:29:40;;;;;;;;;;;;;;;0.77;59.21;100590.53;4423673;32;20027;-83
2021/12/23 08:32:06;;;;;;;;;;;;;;;0.80;59.21;100591.44;4423742;32;20251;-83
2021/12/23 08:34:34;;;;;;;;;;;;;;;0.89;59.21;100588.19;4423742;32;19997;-83
2021/12/23 08:36:59;;;;;;;;;;;;;;;0.97;59.23;100588.38;4411056;32;20347;-82
2021/12/23 08:39:25;;;;;;;;;;;;;;;0.99;59.22;100589.25;4410176;32;19985;-82
2021/12/23 08:41:50;;;;;;;;;;;;;;;1.05;59.23;100582.56;4410886;32;20342;-83
2021/12/23 08:44:15;;;;;;;;;;;;;;;0.95;59.22;100590.91;4409768;32;20021;-81
2021/12/23 08:46:40;;;;;;;;;;;;;;;1.16;59.23;100595.56;4422428;32;20682;-82
2021/12/23 08:49:06;;;;;;;;;;;;;;;1.31;59.24;100595.88;4409660;32;20001;-82
2021/12/23 08:51:32;;;;;;;;;;;;;;;1.37;59.25;100589.97;4422553;32;19994;-81
2021/12/23 08:53:57;;;;;;;;;;;;;;;1.43;59.25;100588.41;4422278;32;20252;-81
2021/12/23 08:56:22;;;;;;;;;;;;;;;1.46;59.25;100585.03;4422291;32;20286;-81
2021/12/23 08:58:47;;;;;;;;;;;;;;;1.37;59.25;100578.03;4422214;32;23961;-83
2021/12/23 09:01:13;;;;;;;;;;;;;;;1.27;59.24;100581.25;4435588;32;19989;-81
2021/12/23 09:03:38;;;;;;;;;;;;;;;1.52;59.25;100582.56;4409561;32;19969;-80
2021/12/23 09:06:04;;;;;;;;;;;;;;;1.38;59.24;100584.88;4436082;32;22516;-80
2021/12/23 09:08:29;;;;;;;;;;;;;;;1.44;59.25;100577.31;4409504;32;20006;-81
2021/12/23 09:10:55;;;;;;;;;;;;;;;1.40;59.25;100559.25;4409650;32;20020;-81
2021/12/23 09:13:20;;;;;;;;;;;;;;;1.36;59.25;100552.34;4422437;32;20098;-81
2021/12/23 09:15:45;;;;;;;;;;;;;;;1.49;59.26;100564.56;4434641;32;20001;-82
2021/12/23 09:18:11;;;;;;;;;;;;;;;1.56;59.27;100555.25;4421715;32;20016;-81
2021/12/23 09:20:36;;;;;;;;;;;;;;;1.68;59.27;100556.34;4408657;32;19977;-81
2021/12/23 09:23:01;;;;;;;;;;;;;;;1.37;59.25;100554.94;4422328;32;20267;-81
2021/12/23 09:25:32;;;;;;;;;;;;;;;1.81;59.28;100527.47;4409847;32;19993;-80
2021/12/23 09:33:06;;;;;;;;;;;;;;;1.85;59.28;100530.94;4424691;32;20175;-80
2021/12/23 09:35:32;;;;;;;;;;;;;;;1.87;59.28;100520.69;4410555;32;20374;-81
2021/12/23 09:37:58;;;;;;;;;;;;;;;1.66;59.27;100519.53;4412245;32;19997;-82
2021/12/23 09:40:23;;;;;;;;;;;;;;;1.78;59.27;100519.72;4424866;32;19988;-81
2021/12/23 09:42:49;;;;;;;;;;;;;;;2.11;59.29;100508.22;4437638;32;19981;-81
2021/12/23 09:45:17;;;;;;;;;;;;;;;2.21;59.29;100512.66;4411910;32;20043;-82
2021/12/23 09:47:42;;;;;;;;;;;;;;;2.25;59.30;100508.41;4412395;32;20025;-81
2021/12/23 09:50:09;;;;;;;;;;;;;;;2.37;59.31;100504.31;4411681;32;19980;-81
2021/12/23 09:52:35;;;;;;;;;;;;;;;2.63;59.32;100504.66;4411966;32;20369;-81
2021/12/23 09:55:00;;;;;;;;;;;;;;;2.48;59.31;100507.03;4411863;32;19985;-82
2021/12/23 09:57:25;;;;;;;;;;;;;;;2.51;59.32;100516.47;4424528;32;20008;-81
2021/12/23 09:59:51;;;;;;;;;;;;;;;2.60;59.32;100511.44;4423865;32;20822;-80
2021/12/23 10:02:16;;;;;;;;;;;;;;;2.78;59.32;100502.25;4411737;32;20010;-81
2021/12/23 10:04:41;;;;;;;;;;;;;;;2.94;59.33;100487.84;4424010;32;20065;-80
2021/12/23 10:07:06;;;;;;;;;;;;;;;3.15;59.35;100478.63;4410633;32;20884;-81
2021/12/23 10:09:44;;;;;;;;;;;;;;;2.98;59.34;100473.31;4411035;32;20031;-81
2021/12/23 10:31:33;;;;;;;;;;;;;;;3.40;59.37;100441.97;4425856;32;19969;-81
2021/12/23 10:37:19;;;;;;;;;;;;;;;2.94;59.35;100441.56;4426810;32;20298;-81
2021/12/23 10:39:54;;;;;;;;;;;;;;;3.11;59.35;100416.00;4424450;32;20016;-81
2021/12/23 10:42:20;;;;;;;;;;;;;;;3.16;59.36;100411.75;4424075;32;20547;-82
2021/12/23 10:44:58;;;;;;;;;;;;;;;3.39;59.37;100414.53;4424899;32;19977;-81
2021/12/23 10:47:54;;;;;;;;;;;;;;;3.20;59.35;100405.78;4409989;32;20005;-83
2021/12/23 10:50:20;;;;;;;;;;;;;;;2.84;59.33;100388.34;4425178;32;20024;-82
2021/12/23 10:52:52;;;;;;;;;;;;;;;3.08;59.34;100386.00;4423608;32;19985;-82
2021/12/23 10:58:07;;;;;;;;;;;;;;;3.22;59.35;100385.22;4423236;32;20031;-82
2021/12/23 11:00:33;;;;;;;;;;;;;;;3.24;59.35;100386.09;4413340;32;20377;-81
2021/12/23 11:03:10;;;;;;;;;;;;;;;3.49;59.37;100377.69;4410936;32;19992;-81
2021/12/23 11:05:41;;;;;;;;;;;;;;;3.50;59.37;100368.25;4437590;32;19993;-81
2021/12/23 11:35:49;;;;;;;;;;;;;;;4.32;59.41;100305.09;4424954;32;20315;-83
2021/12/23 11:37:53;;;;;;;;;;;;;;;4.26;59.41;100294.78;4438974;32;20337;-83
2021/12/23 11:45:49;;;;;;;;;;;;;;;4.16;59.41;100281.88;4421572;32;20029;-83
2021/12/23 11:48:15;;;;;;;;;;;;;;;3.52;59.37;100274.75;4422617;32;19989;-82
2021/12/23 11:51:30;;;;;;;;;;;;;;;3.83;59.40;100277.50;4398103;32;814928;-81
2021/12/23 11:53:29;;;;;;;;;;;;;;;3.99;59.40;100269.78;4423569;32;20044;-82
2021/12/23 11:55:54;;;;;;;;;;;;;;;4.24;59.41;100270.72;4430011;32;20027;-81
2021/12/23 11:58:24;;;;;;;;;;;;;;;4.19;59.40;100261.25;4411675;32;20010;-84
2021/12/23 12:01:06;;;;;;;;;;;;;;;4.20;59.41;100261.25;4421165;32;19998;-82
2021/12/23 12:03:50;;;;;;;;;;;;;;;4.16;59.41;100253.53;4410000;32;20015;-83
2021/12/23 12:06:16;;;;;;;;;;;;;;;4.26;59.41;100248.41;4438041;32;20119;-84
2021/12/23 12:08:41;;;;;;;;;;;;;;;4.26;59.41;100243.25;4430058;32;19999;-84
2021/12/23 12:11:20;;;;;;;;;;;;;;;4.21;59.41;100238.94;4424637;32;20255;-86
2021/12/23 12:14:20;;;;;;;;;;;;;;;4.09;59.40;100237.22;4437502;32;19961;-83
2021/12/23 12:16:45;;;;;;;;;;;;;;;3.88;59.39;100232.88;4403799;32;19993;-82
2021/12/23 12:19:24;;;;;;;;;;;;;;;4.21;59.41;100228.62;4425384;32;20352;-84
2021/12/23 12:21:50;;;;;;;;;;;;;;;4.31;59.42;100217.50;4424655;32;20338;-83
2021/12/23 12:24:15;;;;;;;;;;;;;;;4.22;59.41;100218.31;4423916;32;20039;-83
2021/12/23 12:26:50;;;;;;;;;;;;;;;4.15;59.41;100215.75;4437384;32;19989;-81
2021/12/23 12:29:16;;;;;;;;;;;;;;;4.01;59.40;100219.13;4422972;32;20362;-81
2021/12/23 12:31:42;;;;;;;;;;;;;;;3.91;59.40;100214.84;4423421;32;20020;-82
2021/12/23 12:34:11;;;;;;;;;;;;;;;4.01;59.40;100214.00;4423831;32;20013;-85
2021/12/23 12:37:01;;;;;;;;;;;;;;;4.04;59.40;100202.87;4423678;32;20429;-83
2021/12/23 12:39:30;;;;;;;;;;;;;;;4.04;59.40;100205.44;4437703;32;19989;-86
2021/12/23 12:42:02;;;;;;;;;;;;;;;4.11;59.41;100207.16;4425957;32;20043;-86
2021/12/23 12:44:36;;;;;;;;;;;;;;;4.15;59.41;100202.87;4426605;32;20400;-87
2021/12/23 12:47:13;;;;;;;;;;;;;;;4.28;59.42;100214.91;4426326;32;19984;-87
2021/12/23 12:49:40;;;;;;;;;;;;;;;4.40;59.42;100206.31;4426729;32;19989;-86
2021/12/23 12:52:07;;;;;;;;;;;;;;;4.24;59.41;100192.56;4426005;32;19985;-87
2021/12/23 12:54:33;;;;;;;;;;;;;;;3.93;59.39;100194.25;4430478;32;19984;-87
2021/12/23 12:56:59;;;;;;;;;;;;;;;4.13;59.41;100191.69;4435555;32;19992;-86
2021/12/23 12:59:28;;;;;;;;;;;;;;;4.24;59.42;100179.66;4426306;32;19989;-83
2021/12/23 13:01:54;;;;;;;;;;;;;;;4.00;59.40;100177.94;4425808;32;20004;-88
2021/12/23 13:04:34;;;;;;;;;;;;;;;4.08;59.40;100162.50;4425797;32;20267;-87
2021/12/23 13:07:19;;;;;;;;;;;;;;;4.22;59.41;100164.22;4425731;32;20053;-88
2021/12/23 13:10:07;;;;;;;;;;;;;;;4.03;59.40;100157.34;4417377;32;20044;-88
2021/12/23 13:12:34;;;;;;;;;;;;;;;4.23;59.42;100157.34;4427801;32;20353;-88
2021/12/23 13:15:19;;;;;;;;;;;;;;;4.11;59.40;100149.63;4427635;32;20008;-87
2021/12/23 13:17:45;;;;;;;;;;;;;;;4.17;59.41;100147.91;4426927;32;20063;-87
2021/12/23 13:20:10;;;;;;;;;;;;;;;3.94;59.39;100150.47;4441241;32;20282;-87
2021/12/23 13:22:35;;;;;;;;;;;;;;;3.94;59.39;100140.16;4429336;32;20290;-86
2021/12/23 13:25:02;;;;;;;;;;;;;;;3.84;59.39;100135.00;4435226;32;20020;-88
2021/12/23 13:27:28;;;;;;;;;;;;;;;3.85;59.39;100137.59;4428335;32;20341;-87
2021/12/23 13:29:59;;;;;;;;;;;;;;;3.68;59.37;100139.25;4428044;32;19978;-86
2021/12/23 13:32:24;;;;;;;;;;;;;;;3.47;59.37;100140.06;4427439;32;19981;-85
2021/12/23 13:34:49;;;;;;;;;;;;;;;3.62;59.38;100136.69;4428144;32;20004;-87
2021/12/23 13:37:15;;;;;;;;;;;;;;;3.48;59.37;100143.50;4427366;32;20016;-87
2021/12/23 13:39:41;;;;;;;;;;;;;;;3.65;59.38;100127.25;4427410;32;20281;-86
2021/12/23 13:42:07;;;;;;;;;;;;;;;3.67;59.38;100116.94;4427882;32;20004;-87
2021/12/23 13:44:33;;;;;;;;;;;;;;;3.72;59.38;100115.22;4427707;32;20011;-86
2021/12/23 13:47:00;;;;;;;;;;;;;;;3.50;59.37;100108.31;4427835;32;20586;-84
2021/12/23 13:49:41;;;;;;;;;;;;;;;3.50;59.37;100127.19;4427803;32;19973;-87